Time;durP1;ratioP1;P1;durP2;ratioP2;P2;SDS_P1;SDS_P2;PMS_P1;PMS_P2;Temp;Humidity;BMP_temperature;BMP_pressure;BME280_temperature;BME280_humidity;BME280_pressure;Samples;Min_cycle;Max_cycle;Signal;HPM_P1;HPM_P2
2022/01/26 00:07:10;;;;;;;66.07;24.77;;;3.90;1.00;;;;;;5014592;28;20109;-82
2022/01/26 00:09:35;;;;;;;64.10;24.73;;;3.90;1.00;;;;;;5013008;28;20116;-82
2022/01/26 00:12:01;;;;;;;60.63;24.45;;;3.90;1.00;;;;;;5014434;28;20093;-82
2022/01/26 00:14:26;;;;;;;61.00;23.85;;;3.90;1.00;;;;;;5014591;28;20170;-82
2022/01/26 00:16:52;;;;;;;63.85;24.75;;;3.90;1.00;;;;;;5014222;28;20022;-81
2022/01/26 00:19:23;;;;;;;64.50;24.95;;;3.90;1.00;;;;;;5013306;28;20022;-81
2022/01/26 00:21:55;;;;;;;68.70;26.05;;;3.90;1.00;;;;;;5013391;28;20133;-82
2022/01/26 00:24:50;;;;;;;65.88;25.15;;;3.90;1.00;;;;;;5014978;28;20053;-81
2022/01/26 00:33:07;;;;;;;61.97;23.38;;;3.90;99.90;;;;;;5032100;28;20044;-81
2022/01/26 00:41:06;;;;;;;61.13;24.30;;;3.90;99.90;;;;;;5014282;28;20034;-82
2022/01/26 00:43:33;;;;;;;62.65;25.90;;;3.90;99.90;;;;;;5015084;28;20022;-81
2022/01/26 00:46:00;;;;;;;65.07;26.13;;;3.90;99.90;;;;;;5014059;28;20053;-81
2022/01/26 00:48:29;;;;;;;68.65;28.25;;;3.90;99.90;;;;;;5014195;28;20028;-82
2022/01/26 00:50:59;;;;;;;64.20;26.13;;;3.90;99.90;;;;;;5014431;28;20026;-81
2022/01/26 00:53:30;;;;;;;64.82;24.15;;;3.90;99.90;;;;;;5014333;28;20017;-81
2022/01/26 00:55:56;;;;;;;70.00;27.27;;;3.90;99.90;;;;;;5012708;28;20034;-81
2022/01/26 00:58:21;;;;;;;65.82;25.88;;;3.90;99.90;;;;;;5013913;28;20028;-82
2022/01/26 01:00:47;;;;;;;66.63;26.45;;;3.90;99.90;;;;;;5014286;28;20149;-81
2022/01/26 01:03:13;;;;;;;68.25;27.75;;;3.90;99.90;;;;;;5013921;28;20026;-82
2022/01/26 01:06:26;;;;;;;72.03;27.20;;;3.90;99.90;;;;;;5013934;28;20057;-82
2022/01/26 01:08:55;;;;;;;64.78;26.85;;;3.90;99.90;;;;;;5014263;28;20489;-81
2022/01/26 01:11:39;;;;;;;62.08;26.27;;;3.90;99.90;;;;;;5014127;28;20068;-82
2022/01/26 01:14:05;;;;;;;61.00;26.42;;;3.90;99.90;;;;;;5014144;28;20057;-82
2022/01/26 01:16:30;;;;;;;58.25;25.73;;;3.90;99.90;;;;;;5013880;28;20018;-82
2022/01/26 01:29:42;;;;;;;67.88;27.52;;;3.80;99.90;;;;;;5018022;28;20033;-81
2022/01/26 01:35:32;;;;;;;66.60;25.27;;;3.80;99.90;;;;;;5017898;28;20080;-82
2022/01/26 01:38:06;;;;;;;65.80;25.90;;;3.80;99.90;;;;;;5017948;28;20034;-82
2022/01/26 01:40:32;;;;;;;63.40;26.10;;;3.80;99.90;;;;;;5017745;28;20026;-82
2022/01/26 01:42:57;;;;;;;67.97;27.23;;;3.70;99.90;;;;;;5017354;28;20034;-82
2022/01/26 01:45:35;;;;;;;64.68;27.23;;;3.80;99.90;;;;;;5017205;28;20097;-82
2022/01/26 01:48:02;;;;;;;65.55;26.67;;;3.70;99.90;;;;;;5017430;28;20025;-81
2022/01/26 01:50:28;;;;;;;63.90;25.70;;;3.70;99.90;;;;;;5017699;28;20029;-81
2022/01/26 01:53:00;;;;;;;65.55;26.77;;;3.70;99.90;;;;;;5017136;28;20057;-81
2022/01/26 01:55:30;;;;;;;65.97;26.15;;;3.70;99.90;;;;;;5017909;28;20025;-82
2022/01/26 01:57:57;;;;;;;66.78;27.15;;;3.70;99.90;;;;;;5017776;28;20022;-81
2022/01/26 02:00:24;;;;;;;65.07;26.90;;;3.70;99.90;;;;;;5017389;28;20048;-81
2022/01/26 02:02:49;;;;;;;61.80;24.85;;;3.60;99.90;;;;;;5017075;28;20437;-82
2022/01/26 02:05:15;;;;;;;68.50;26.00;;;3.70;99.90;;;;;;5015854;28;20050;-81
2022/01/26 02:07:41;;;;;;;68.57;28.17;;;3.70;99.90;;;;;;5017147;28;20026;-82
2022/01/26 02:10:07;;;;;;;65.07;26.88;;;3.70;99.90;;;;;;5015860;28;20065;-81
2022/01/26 02:12:35;;;;;;;69.07;27.05;;;3.60;99.90;;;;;;5017377;28;20029;-82
2022/01/26 02:15:11;;;;;;;69.95;28.50;;;3.70;99.90;;;;;;5017564;28;20025;-82
2022/01/26 02:53:47;;;;;;;63.28;27.33;;;3.60;99.90;;;;;;5016992;28;20036;-82
2022/01/26 02:56:24;;;;;;;69.15;29.60;;;3.60;99.90;;;;;;5016438;28;20065;-81
2022/01/26 02:59:13;;;;;;;67.63;28.38;;;3.60;99.90;;;;;;5016804;28;20458;-81
2022/01/26 03:01:48;;;;;;;65.40;27.83;;;3.60;99.90;;;;;;5016578;28;20116;-82
2022/01/26 03:04:30;;;;;;;68.72;28.13;;;3.60;99.90;;;;;;5016360;28;20380;-82
2022/01/26 03:07:03;;;;;;;73.68;28.10;;;3.60;99.90;;;;;;5016366;28;20034;-81
2022/01/26 03:09:34;;;;;;;64.75;28.02;;;3.60;99.90;;;;;;4996773;28;20080;-81
2022/01/26 03:12:02;;;;;;;65.25;27.80;;;3.60;99.90;;;;;;4996855;28;20073;-81
2022/01/26 03:14:39;;;;;;;61.95;28.05;;;3.60;99.90;;;;;;4995232;28;20061;-82
2022/01/26 03:17:16;;;;;;;66.72;27.65;;;3.60;99.90;;;;;;4996474;28;20034;-81
2022/01/26 03:19:46;;;;;;;62.45;27.05;;;3.60;99.90;;;;;;5014534;28;20080;-81
2022/01/26 03:35:41;;;;;;;65.47;29.65;;;3.60;99.90;;;;;;5015711;28;20116;-81
2022/01/26 03:38:08;;;;;;;70.53;29.35;;;3.60;99.90;;;;;;5014340;28;20069;-81
2022/01/26 03:40:37;;;;;;;67.40;28.63;;;3.60;99.90;;;;;;5013936;28;20460;-82
2022/01/26 03:43:03;;;;;;;68.95;29.05;;;3.60;99.90;;;;;;5015045;28;20582;-82
2022/01/26 03:45:28;;;;;;;61.53;28.13;;;3.60;99.90;;;;;;5015393;28;20541;-81
2022/01/26 03:47:55;;;;;;;62.88;26.85;;;3.60;99.90;;;;;;5015235;28;20068;-82
2022/01/26 03:50:25;;;;;;;63.28;26.45;;;3.60;99.90;;;;;;5015352;28;20114;-81
2022/01/26 03:52:50;;;;;;;60.30;25.80;;;3.60;99.90;;;;;;5014553;28;20026;-81
2022/01/26 03:55:16;;;;;;;65.57;27.02;;;3.60;99.90;;;;;;5015590;28;20088;-81
2022/01/26 03:57:42;;;;;;;60.42;24.95;;;3.60;99.90;;;;;;5015242;28;20440;-81
2022/01/26 04:00:10;;;;;;;62.22;25.55;;;3.50;99.90;;;;;;5015027;28;20026;-81
2022/01/26 04:02:36;;;;;;;60.45;25.20;;;3.60;99.90;;;;;;5013935;28;20604;-81
2022/01/26 04:05:05;;;;;;;63.33;26.60;;;3.60;99.90;;;;;;5013954;28;20769;-81
2022/01/26 04:07:31;;;;;;;63.00;25.52;;;3.60;99.90;;;;;;5015525;28;20017;-82
2022/01/26 04:10:05;;;;;;;61.83;26.25;;;3.60;99.90;;;;;;5014694;28;20029;-82
2022/01/26 04:12:32;;;;;;;63.90;25.00;;;3.60;99.90;;;;;;5015361;28;20088;-82
2022/01/26 04:15:05;;;;;;;69.13;24.73;;;3.60;99.90;;;;;;5015301;28;20014;-82
2022/01/26 04:17:31;;;;;;;61.33;23.52;;;3.50;99.90;;;;;;5014880;28;20042;-81
2022/01/26 04:19:58;;;;;;;62.13;25.98;;;3.60;99.90;;;;;;5014936;28;20030;-81
2022/01/26 04:22:34;;;;;;;62.70;24.00;;;3.60;99.90;;;;;;5014535;28;20428;-81
2022/01/26 04:25:01;;;;;;;63.35;24.73;;;3.60;99.90;;;;;;5013133;28;20096;-81
2022/01/26 04:27:41;;;;;;;66.05;25.63;;;3.60;99.90;;;;;;5014308;28;20014;-81
2022/01/26 04:30:07;;;;;;;70.03;24.98;;;3.60;99.90;;;;;;5013323;28;20026;-81
2022/01/26 04:32:33;;;;;;;60.92;23.92;;;3.50;99.90;;;;;;5014428;28;20053;-81
2022/01/26 04:34:58;;;;;;;57.40;23.00;;;3.60;99.90;;;;;;5014745;28;20058;-81
2022/01/26 04:37:45;;;;;;;60.08;23.70;;;3.60;99.90;;;;;;5029527;28;20524;-81
2022/01/26 04:40:14;;;;;;;61.67;24.35;;;3.60;99.90;;;;;;5014891;28;20548;-81
2022/01/26 04:45:09;;;;;;;55.35;22.17;;;3.60;99.90;;;;;;5015016;28;20110;-82
2022/01/26 04:47:35;;;;;;;64.95;24.70;;;3.60;99.90;;;;;;5014648;28;20105;-81
2022/01/26 04:50:01;;;;;;;62.67;23.15;;;3.60;99.90;;;;;;5014259;28;20054;-81
2022/01/26 04:52:26;;;;;;;68.88;25.15;;;3.50;99.90;;;;;;5014727;28;20113;-81
2022/01/26 04:54:52;;;;;;;61.28;24.15;;;3.60;99.90;;;;;;5012021;28;20569;-81
2022/01/26 04:57:18;;;;;;;63.83;22.73;;;3.50;99.90;;;;;;5014091;28;20021;-81
2022/01/26 04:59:44;;;;;;;60.80;23.85;;;3.60;99.90;;;;;;5014317;28;20045;-81
2022/01/26 05:02:09;;;;;;;63.13;23.77;;;3.60;99.90;;;;;;5014122;28;20075;-81
2022/01/26 05:04:35;;;;;;;59.80;22.85;;;3.60;99.90;;;;;;5014111;28;20030;-81
2022/01/26 05:07:00;;;;;;;63.45;25.60;;;3.60;99.90;;;;;;5014190;28;20112;-81
2022/01/26 05:09:26;;;;;;;62.08;23.60;;;3.60;99.90;;;;;;5012892;28;20022;-81
2022/01/26 05:11:54;;;;;;;68.10;24.60;;;3.60;99.90;;;;;;5014339;28;20030;-81
2022/01/26 05:14:19;;;;;;;72.70;25.65;;;3.60;99.90;;;;;;5013087;28;20088;-81
2022/01/26 05:16:46;;;;;;;70.43;26.98;;;3.60;99.90;;;;;;5014452;28;20022;-82
2022/01/26 05:19:11;;;;;;;65.38;25.52;;;3.80;99.90;;;;;;5013241;28;20046;-81
2022/01/26 05:21:37;;;;;;;71.15;26.90;;;3.60;99.90;;;;;;5014010;28;20030;-81
2022/01/26 05:24:03;;;;;;;70.93;26.73;;;3.60;99.90;;;;;;5012871;28;20029;-82
2022/01/26 05:26:29;;;;;;;68.60;25.23;;;3.70;99.90;;;;;;5014172;28;20030;-81
2022/01/26 05:28:55;;;;;;;69.63;26.30;;;3.70;99.90;;;;;;5014218;28;20036;-81
2022/01/26 05:31:20;;;;;;;68.32;25.35;;;3.70;99.90;;;;;;5014119;28;20025;-81
2022/01/26 05:33:46;;;;;;;68.28;24.13;;;3.70;99.90;;;;;;5014068;28;20026;-81
2022/01/26 05:36:12;;;;;;;69.18;25.83;;;3.70;99.90;;;;;;5013714;28;20501;-81
2022/01/26 05:38:38;;;;;;;65.88;24.42;;;3.70;99.90;;;;;;5014069;28;20050;-81
2022/01/26 05:41:04;;;;;;;66.88;26.30;;;3.70;99.90;;;;;;5013832;28;20022;-81
2022/01/26 05:43:33;;;;;;;64.30;25.40;;;3.80;99.90;;;;;;5013889;28;20026;-81
2022/01/26 05:46:08;;;;;;;71.43;26.85;;;3.80;99.90;;;;;;5013903;28;20017;-81
2022/01/26 05:48:35;;;;;;;66.03;25.33;;;3.80;99.90;;;;;;5014309;28;20101;-81
2022/01/26 05:51:06;;;;;;;62.10;23.98;;;3.70;99.90;;;;;;4994590;28;20054;-81
2022/01/26 05:53:33;;;;;;;63.97;24.60;;;3.80;99.90;;;;;;4994419;28;20029;-81
2022/01/26 05:55:58;;;;;;;67.85;25.90;;;3.80;99.90;;;;;;5009628;28;20049;-81
2022/01/26 05:58:24;;;;;;;71.57;26.20;;;3.80;99.90;;;;;;4994411;28;20026;-81
2022/01/26 06:00:50;;;;;;;66.65;26.05;;;3.80;99.90;;;;;;5012047;28;20022;-81
2022/01/26 06:03:16;;;;;;;76.00;25.70;;;3.90;99.90;;;;;;5013947;28;20437;-82
2022/01/26 06:05:42;;;;;;;66.30;25.08;;;3.80;99.90;;;;;;5013786;28;20474;-82
2022/01/26 06:08:08;;;;;;;74.93;26.50;;;3.90;99.90;;;;;;5015536;28;20385;-82
2022/01/26 06:10:34;;;;;;;77.45;26.55;;;3.90;99.90;;;;;;5012612;28;20445;-82
2022/01/26 06:13:20;;;;;;;66.68;24.92;;;3.80;99.90;;;;;;5016690;28;20543;-81
2022/01/26 06:15:47;;;;;;;69.60;23.95;;;3.80;99.90;;;;;;5016296;28;20112;-82
2022/01/26 06:18:13;;;;;;;63.50;23.58;;;3.90;99.90;;;;;;5013980;28;20045;-81
2022/01/26 06:20:50;;;;;;;51.65;18.60;;;3.90;99.90;;;;;;5007665;28;20030;-82
2022/01/26 06:23:16;;;;;;;50.30;20.02;;;3.90;99.90;;;;;;5005827;28;20038;-82
2022/01/26 06:25:42;;;;;;;53.92;20.20;;;3.90;99.90;;;;;;5003821;28;20089;-82
2022/01/26 06:28:12;;;;;;;55.78;19.77;;;3.90;99.90;;;;;;5011860;28;20026;-82
2022/01/26 06:30:38;;;;;;;54.25;20.10;;;3.90;99.90;;;;;;5016879;28;20385;-81
2022/01/26 06:33:05;;;;;;;58.80;20.83;;;4.00;99.90;;;;;;5015434;28;20030;-81
2022/01/26 06:35:34;;;;;;;55.50;19.73;;;4.00;99.90;;;;;;5005146;28;20030;-82
2022/01/26 06:38:00;;;;;;;51.72;20.05;;;4.00;99.90;;;;;;4999075;28;20613;-81
2022/01/26 06:40:26;;;;;;;52.50;19.48;;;4.00;99.90;;;;;;4997385;28;20041;-82
2022/01/26 06:42:58;;;;;;;55.20;20.50;;;4.00;99.90;;;;;;4997218;28;20030;-81
2022/01/26 06:45:27;;;;;;;54.92;21.00;;;3.90;99.90;;;;;;4999665;28;20049;-82
2022/01/26 06:48:12;;;;;;;60.50;22.77;;;4.00;99.90;;;;;;5009832;28;20018;-82
2022/01/26 06:50:39;;;;;;;60.67;22.08;;;3.90;99.90;;;;;;5007737;28;20034;-82
2022/01/26 06:53:04;;;;;;;53.97;20.70;;;3.90;99.90;;;;;;5014154;28;20125;-82
2022/01/26 06:55:30;;;;;;;54.22;20.58;;;3.90;99.90;;;;;;5014108;28;20552;-82
2022/01/26 06:57:56;;;;;;;57.25;20.98;;;3.90;99.90;;;;;;5011680;28;20092;-81
2022/01/26 07:00:22;;;;;;;51.45;19.70;;;4.00;99.90;;;;;;5003509;28;20031;-82
2022/01/26 07:02:47;;;;;;;49.00;19.30;;;3.90;99.90;;;;;;5013801;28;20030;-82
2022/01/26 07:05:13;;;;;;;54.38;20.15;;;3.90;99.90;;;;;;5013632;28;20462;-82
2022/01/26 07:07:40;;;;;;;51.50;21.65;;;4.00;99.90;;;;;;5013615;28;20022;-82
2022/01/26 07:10:07;;;;;;;53.80;22.20;;;3.90;99.90;;;;;;5013724;28;20033;-82
2022/01/26 07:12:33;;;;;;;56.97;22.73;;;3.90;99.90;;;;;;5013417;28;20470;-82
2022/01/26 07:21:22;;;;;;;60.13;22.08;;;4.00;99.90;;;;;;5008819;28;20518;-82
2022/01/26 07:23:25;;;;;;;61.03;22.88;;;4.00;99.90;;;;;;5013102;28;20588;-83
2022/01/26 07:25:50;;;;;;;61.33;22.25;;;4.00;99.90;;;;;;5013882;28;20097;-82
2022/01/26 07:28:16;;;;;;;59.83;23.27;;;4.00;99.90;;;;;;5015720;28;20109;-83
2022/01/26 07:30:42;;;;;;;60.17;22.88;;;4.00;99.90;;;;;;5012895;28;20022;-82
2022/01/26 07:33:08;;;;;;;53.88;21.77;;;4.00;99.90;;;;;;5013070;28;20076;-82
2022/01/26 07:35:34;;;;;;;60.08;22.58;;;4.00;99.90;;;;;;5012011;28;20027;-82
2022/01/26 07:38:02;;;;;;;55.90;21.90;;;4.00;99.90;;;;;;5013051;28;20393;-82
2022/01/26 07:40:28;;;;;;;61.03;23.30;;;4.10;99.90;;;;;;5011525;28;20083;-83
2022/01/26 07:42:54;;;;;;;58.67;23.23;;;4.00;99.90;;;;;;5011400;28;20080;-82
2022/01/26 07:45:20;;;;;;;67.35;23.05;;;4.00;99.90;;;;;;5013120;28;20034;-83
2022/01/26 07:47:51;;;;;;;61.00;22.77;;;4.10;99.90;;;;;;5012443;28;20026;-83
2022/01/26 07:50:17;;;;;;;59.05;21.08;;;4.10;99.90;;;;;;5012598;28;20096;-83
2022/01/26 07:52:43;;;;;;;57.58;21.55;;;4.10;99.90;;;;;;5014042;28;20370;-83
2022/01/26 07:55:13;;;;;;;53.85;21.60;;;4.10;99.90;;;;;;5015092;28;20025;-82
2022/01/26 07:57:38;;;;;;;68.18;25.05;;;4.10;99.90;;;;;;5009668;28;20088;-82
2022/01/26 08:00:06;;;;;;;67.43;23.77;;;4.10;99.90;;;;;;5014990;28;20038;-82
2022/01/26 08:02:32;;;;;;;73.13;25.52;;;4.20;99.90;;;;;;4995740;28;20077;-82
2022/01/26 08:04:57;;;;;;;68.47;24.67;;;4.10;99.90;;;;;;5004649;28;20022;-82
2022/01/26 08:07:23;;;;;;;73.20;26.40;;;4.10;99.90;;;;;;4995320;28;20026;-82
2022/01/26 08:09:49;;;;;;;74.47;26.25;;;4.10;99.90;;;;;;4998160;28;20115;-83
2022/01/26 08:12:15;;;;;;;65.35;24.00;;;4.20;99.90;;;;;;4997706;28;20509;-83
2022/01/26 08:14:42;;;;;;;68.30;24.55;;;4.20;99.90;;;;;;4995303;28;20146;-83
2022/01/26 08:17:08;;;;;;;67.50;22.67;;;4.20;99.90;;;;;;4996725;28;20030;-83
2022/01/26 08:19:35;;;;;;;66.43;23.80;;;4.20;99.90;;;;;;4994740;28;20138;-83
2022/01/26 08:22:01;;;;;;;65.75;23.02;;;4.20;99.90;;;;;;5004720;28;20478;-82
2022/01/26 08:24:28;;;;;;;60.85;22.77;;;4.20;99.90;;;;;;4996093;28;20091;-83
2022/01/26 08:26:57;;;;;;;61.25;22.33;;;4.30;99.90;;;;;;4995618;28;20049;-82
2022/01/26 08:29:28;;;;;;;59.00;19.88;;;4.30;99.90;;;;;;4993658;28;20035;-82
2022/01/26 08:31:54;;;;;;;64.07;21.55;;;4.30;99.90;;;;;;4999362;28;20116;-82
2022/01/26 08:34:19;;;;;;;59.50;20.33;;;4.30;99.90;;;;;;4996800;28;20154;-83
2022/01/26 08:36:45;;;;;;;51.67;17.90;;;4.30;99.90;;;;;;4997752;28;20100;-82
2022/01/26 08:39:11;;;;;;;56.58;18.73;;;4.30;99.90;;;;;;4993626;28;20397;-83
2022/01/26 08:41:36;;;;;;;51.15;18.33;;;4.30;99.90;;;;;;4998178;28;20038;-83
2022/01/26 08:44:03;;;;;;;53.08;18.88;;;4.40;99.90;;;;;;4996329;28;20034;-82
2022/01/26 08:46:29;;;;;;;60.25;19.65;;;4.40;99.90;;;;;;4993748;28;20026;-83
2022/01/26 08:48:54;;;;;;;53.15;19.85;;;4.40;99.90;;;;;;4997126;28;20373;-82
2022/01/26 08:51:20;;;;;;;52.22;20.60;;;4.40;99.90;;;;;;5015502;28;20062;-82
2022/01/26 08:53:46;;;;;;;57.88;20.85;;;4.40;99.90;;;;;;5010528;28;20153;-82
2022/01/26 08:56:12;;;;;;;57.13;20.98;;;4.40;99.90;;;;;;5011960;28;20444;-83
2022/01/26 08:58:37;;;;;;;54.90;20.48;;;4.40;99.90;;;;;;5011884;28;20026;-82
2022/01/26 09:01:03;;;;;;;58.00;18.38;;;4.40;99.90;;;;;;5011789;28;20038;-82
2022/01/26 09:03:30;;;;;;;48.97;18.63;;;4.50;99.90;;;;;;5003462;28;20026;-82
2022/01/26 09:05:56;;;;;;;52.53;19.90;;;4.40;99.90;;;;;;4999024;28;20026;-82
2022/01/26 09:08:22;;;;;;;56.13;18.23;;;4.50;99.90;;;;;;4993723;28;20045;-82
2022/01/26 09:10:47;;;;;;;51.38;17.70;;;4.50;99.90;;;;;;4994912;28;20471;-82
2022/01/26 09:13:13;;;;;;;51.92;17.98;;;4.60;99.90;;;;;;4994802;28;20029;-82
2022/01/26 09:15:40;;;;;;;48.03;19.55;;;4.60;99.90;;;;;;5006266;28;20026;-83
2022/01/26 09:18:07;;;;;;;50.30;19.55;;;4.60;99.90;;;;;;5012022;28;20136;-82
2022/01/26 09:20:36;;;;;;;50.80;18.25;;;4.60;99.90;;;;;;5010196;28;20489;-82
2022/01/26 09:23:02;;;;;;;50.47;19.02;;;4.60;99.90;;;;;;5008853;28;20029;-82
2022/01/26 09:25:28;;;;;;;57.13;20.50;;;4.70;99.90;;;;;;5009606;28;20047;-82
2022/01/26 09:27:54;;;;;;;46.20;18.00;;;4.70;99.90;;;;;;5010982;28;20373;-82
2022/01/26 09:30:19;;;;;;;47.45;18.27;;;4.70;99.90;;;;;;5003147;28;20385;-82
2022/01/26 09:32:45;;;;;;;52.72;19.05;;;4.70;99.90;;;;;;5009556;28;20018;-82
2022/01/26 09:35:11;;;;;;;51.53;19.15;;;4.70;99.90;;;;;;5010942;28;20022;-82
2022/01/26 09:37:36;;;;;;;56.75;18.77;;;4.80;99.90;;;;;;5011197;28;20022;-82
2022/01/26 09:40:03;;;;;;;49.53;18.00;;;4.80;99.90;;;;;;5011035;28;20126;-81
2022/01/26 09:42:30;;;;;;;46.88;18.25;;;4.90;99.90;;;;;;5023850;28;20034;-82
2022/01/26 09:44:56;;;;;;;47.35;18.90;;;4.90;99.90;;;;;;5010744;28;20026;-82
2022/01/26 09:47:23;;;;;;;49.08;17.55;;;4.90;99.90;;;;;;5013695;28;20022;-81
2022/01/26 09:49:50;;;;;;;51.53;19.05;;;5.00;99.90;;;;;;5017861;28;20022;-81
2022/01/26 09:52:41;;;;;;;51.55;19.35;;;5.00;99.90;;;;;;5017590;28;20018;-82
2022/01/26 09:55:03;;;;;;;55.80;19.95;;;5.00;99.90;;;;;;5017233;28;20058;-82
2022/01/26 09:57:29;;;;;;;59.85;19.90;;;5.10;99.90;;;;;;5010889;28;20048;-83
2022/01/26 09:59:56;;;;;;;52.45;21.10;;;5.10;99.90;;;;;;5002792;28;20050;-82
2022/01/26 10:02:29;;;;;;;58.80;19.85;;;5.10;99.90;;;;;;5013112;28;20033;-86
2022/01/26 10:05:05;;;;;;;52.65;19.77;;;5.20;99.90;;;;;;4997420;28;20030;-87
2022/01/26 10:15:29;;;;;;;50.72;18.08;;;5.30;99.90;;;;;;5014793;28;20045;-87
2022/01/26 10:18:01;;;;;;;;;;;5.30;99.90;;;;;;5013542;28;20129;-86
2022/01/26 10:20:26;;;;;;;42.63;16.70;;;5.30;99.90;;;;;;5015057;28;19921;-82
2022/01/26 10:22:52;;;;;;;52.65;19.48;;;5.40;99.90;;;;;;5019354;28;20358;-81
2022/01/26 10:25:20;;;;;;;53.83;19.55;;;5.40;99.90;;;;;;5015076;28;20033;-85
2022/01/26 10:27:50;;;;;;;47.58;17.67;;;5.60;99.90;;;;;;5015617;28;20022;-86
2022/01/26 10:30:19;;;;;;;54.00;18.60;;;5.60;99.90;;;;;;5016648;28;20021;-85
2022/01/26 10:32:46;;;;;;;49.67;18.42;;;5.70;91.80;;;;;;5021014;28;20065;-83
2022/01/26 10:35:14;;;;;;;52.63;18.55;;;5.50;66.50;;;;;;5013670;28;20474;-82
2022/01/26 10:37:51;;;;;;;49.78;18.85;;;5.50;90.60;;;;;;5020886;28;20022;-83
2022/01/26 10:40:22;;;;;;;48.65;18.20;;;5.60;99.90;;;;;;5013729;28;20482;-83
2022/01/26 10:42:58;;;;;;;;;;;5.50;96.10;;;;;;5014655;28;20026;-83
2022/01/26 10:46:04;;;;;;;46.13;17.60;;;5.60;88.10;;;;;;5012573;28;20373;-82
2022/01/26 10:48:54;;;;;;;53.65;19.70;;;5.60;93.80;;;;;;5012867;28;20052;-82
2022/01/26 10:51:36;;;;;;;51.38;19.30;;;5.70;99.90;;;;;;5000186;28;20141;-82
2022/01/26 10:54:20;;;;;;;52.28;18.85;;;5.70;97.20;;;;;;5006416;28;20534;-82
2022/01/26 10:56:47;;;;;;;54.40;18.92;;;5.70;97.10;;;;;;4997616;28;20037;-82
2022/01/26 10:59:13;;;;;;;49.25;17.73;;;5.70;90.30;;;;;;5000867;28;20030;-82
2022/01/26 11:01:39;;;;;;;46.28;17.95;;;5.70;91.90;;;;;;4997070;28;20033;-82
2022/01/26 11:04:06;;;;;;;46.65;18.52;;;5.70;85.90;;;;;;5002125;28;20454;-82
2022/01/26 11:06:31;;;;;;;49.35;18.50;;;5.70;85.20;;;;;;5011747;28;20105;-82
2022/01/26 11:09:00;;;;;;;49.60;18.05;;;5.80;90.20;;;;;;5013647;28;20061;-82
2022/01/26 11:11:27;;;;;;;47.97;17.53;;;5.70;81.80;;;;;;5013292;28;20034;-82
2022/01/26 11:13:53;;;;;;;48.65;17.17;;;5.80;95.30;;;;;;5008530;28;20044;-82
2022/01/26 11:16:19;;;;;;;48.28;18.58;;;5.80;93.50;;;;;;4993922;28;20560;-81
2022/01/26 11:18:51;;;;;;;44.60;16.40;;;5.90;80.70;;;;;;4995292;28;20089;-82
2022/01/26 11:21:34;;;;;;;49.35;18.80;;;5.90;93.00;;;;;;5008491;28;20032;-82
2022/01/26 11:24:19;;;;;;;49.42;18.98;;;5.90;87.30;;;;;;5002137;28;20397;-82
2022/01/26 11:26:47;;;;;;;51.38;18.33;;;6.00;96.60;;;;;;4996006;28;20026;-82
2022/01/26 11:29:26;;;;;;;49.63;18.85;;;5.90;94.40;;;;;;5014832;28;20416;-82
2022/01/26 11:32:33;;;;;;;51.33;19.98;;;5.90;80.50;;;;;;5011126;28;20482;-82
2022/01/26 11:35:04;;;;;;;48.97;18.02;;;5.90;91.30;;;;;;4995000;28;20543;-84
2022/01/26 11:37:38;;;;;;;46.80;17.25;;;6.00;94.40;;;;;;4996064;28;20034;-84
2022/01/26 11:45:29;;;;;;;43.03;16.70;;;6.20;74.40;;;;;;4995780;28;20490;-85
2022/01/26 11:48:01;;;;;;;47.03;17.95;;;6.20;79.80;;;;;;4996215;28;20018;-84
2022/01/26 11:50:29;;;;;;;42.67;17.40;;;6.30;90.70;;;;;;5017081;28;20094;-84
2022/01/26 11:53:23;;;;;;;47.20;16.67;;;6.30;95.10;;;;;;5012051;28;20494;-84
2022/01/26 11:55:51;;;;;;;46.40;17.35;;;6.30;94.40;;;;;;5012290;28;20052;-84
2022/01/26 11:58:31;;;;;;;38.97;15.50;;;6.30;97.20;;;;;;5011103;28;20084;-84
2022/01/26 12:03:35;;;;;;;45.92;17.83;;;6.40;99.90;;;;;;5012328;28;20267;-84
2022/01/26 12:06:01;;;;;;;42.67;17.00;;;6.50;95.30;;;;;;5010120;28;20040;-85
2022/01/26 12:08:38;;;;;;;48.78;17.23;;;6.60;99.50;;;;;;5011778;28;20473;-84
2022/01/26 12:11:15;;;;;;;48.55;18.35;;;6.70;93.60;;;;;;5011038;28;20151;-84
2022/01/26 12:13:42;;;;;;;48.47;17.83;;;6.70;78.00;;;;;;5011446;28;20057;-85
2022/01/26 12:16:13;;;;;;;53.00;19.38;;;6.70;67.10;;;;;;5012694;28;20037;-84
2022/01/26 12:35:37;;;;;;;48.17;18.95;;;7.00;67.20;;;;;;5011784;28;20399;-81
2022/01/26 12:38:10;;;;;;;51.47;18.60;;;7.10;10.90;;;;;;5012099;28;20104;-80
2022/01/26 12:43:35;;;;;;;43.53;16.88;;;7.00;21.90;;;;;;5002311;28;20055;-80
2022/01/26 12:46:01;;;;;;;45.85;16.73;;;7.10;27.70;;;;;;5004404;28;20053;-80
2022/01/26 12:48:28;;;;;;;43.35;17.38;;;7.20;22.50;;;;;;5003923;28;20482;-80
2022/01/26 12:50:55;;;;;;;45.40;17.10;;;7.30;20.60;;;;;;5001727;28;20040;-80
2022/01/26 12:53:26;;;;;;;45.97;16.67;;;7.30;1.00;;;;;;4994416;28;20463;-80
2022/01/26 12:56:00;;;;;;;45.15;16.60;;;7.30;9.20;;;;;;4999403;28;20069;-80
2022/01/26 12:58:31;;;;;;;42.80;16.60;;;7.40;1.30;;;;;;5012073;28;20034;-81
2022/01/26 13:01:05;;;;;;;42.05;16.00;;;7.30;15.70;;;;;;5011690;28;20030;-81
2022/01/26 13:03:37;;;;;;;42.70;16.48;;;7.40;15.90;;;;;;5011554;28;20034;-80
2022/01/26 13:06:06;;;;;;;45.17;16.92;;;7.40;6.80;;;;;;5011680;28;20017;-80
2022/01/26 13:08:47;;;;;;;39.53;16.73;;;7.40;10.30;;;;;;5001686;28;20098;-80
2022/01/26 13:11:20;;;;;;;44.20;16.90;;;7.20;25.50;;;;;;5009958;28;20080;-80
2022/01/26 13:13:46;;;;;;;41.80;16.15;;;7.30;16.50;;;;;;5007876;28;20027;-80
2022/01/26 13:16:23;;;;;;;37.92;16.42;;;7.20;8.10;;;;;;4997208;28;20114;-81
2022/01/26 13:19:13;;;;;;;38.85;16.25;;;7.40;12.50;;;;;;5012637;28;20050;-80
2022/01/26 13:22:00;;;;;;;37.58;15.00;;;7.40;18.10;;;;;;5000631;28;20030;-80
2022/01/26 13:27:05;;;;;;;34.92;13.27;;;7.40;29.10;;;;;;5006420;28;20029;-80
2022/01/26 13:29:53;;;;;;;31.50;12.07;;;7.50;24.20;;;;;;5018093;28;20064;-80
2022/01/26 13:32:43;;;;;;;37.00;13.32;;;7.40;28.60;;;;;;5015437;28;20026;-80
2022/01/26 13:35:31;;;;;;;31.60;11.68;;;7.40;35.20;;;;;;5006672;28;20026;-81
2022/01/26 13:49:14;;;;;;;27.85;11.98;;;7.20;91.40;;;;;;5015287;28;20388;-83
2022/01/26 13:51:48;;;;;;;32.92;11.80;;;7.10;99.90;;;;;;5007720;28;20440;-83
2022/01/26 13:56:54;;;;;;;28.48;10.85;;;7.10;99.90;;;;;;5014104;28;20393;-83
2022/01/26 14:01:50;;;;;;;25.13;10.73;;;7.20;95.40;;;;;;5010427;28;20037;-83
2022/01/26 14:04:18;;;;;;;34.70;12.65;;;7.40;98.80;;;;;;5015034;28;20134;-83
2022/01/26 14:06:44;;;;;;;28.45;11.35;;;7.50;80.20;;;;;;5014666;28;20017;-83
2022/01/26 14:09:10;;;;;;;32.00;14.10;;;7.50;59.70;;;;;;5014915;28;20072;-82
2022/01/26 14:11:36;;;;;;;38.40;14.25;;;7.50;53.00;;;;;;5014442;28;20072;-83
2022/01/26 14:14:02;;;;;;;37.90;13.85;;;7.50;52.90;;;;;;5013223;28;20029;-83
2022/01/26 14:16:33;;;;;;;35.70;14.38;;;7.50;55.40;;;;;;5014767;28;20076;-81
2022/01/26 14:19:07;;;;;;;37.60;13.63;;;7.50;54.50;;;;;;5012000;28;20046;-81
2022/01/26 14:26:44;;;;;;;35.33;14.32;;;7.50;77.50;;;;;;5014168;28;20049;-81
2022/01/26 14:29:24;;;;;;;37.88;13.80;;;7.50;57.30;;;;;;5014209;28;20101;-80
2022/01/26 14:50:59;;;;;;;31.35;13.52;;;7.30;99.90;;;;;;5012421;28;20081;-81
2022/01/26 15:00:06;;;;;;;29.73;11.60;;;7.20;99.90;;;;;;5013278;28;20030;-81
2022/01/26 15:19:07;;;;;;;32.13;12.35;;;7.00;99.90;;;;;;5006275;28;20036;-81
2022/01/26 15:42:33;;;;;;;32.67;11.50;;;6.80;99.90;;;;;;5004498;28;20041;-81
2022/01/26 15:50:24;;;;;;;35.90;13.60;;;6.70;99.90;;;;;;4996017;28;20045;-81
2022/01/26 15:53:18;;;;;;;36.58;13.30;;;6.70;99.90;;;;;;5005419;28;20083;-81
2022/01/26 15:59:03;;;;;;;31.67;11.90;;;6.70;99.90;;;;;;5022816;28;20093;-82
2022/01/26 16:20:50;;;;;;;37.00;14.63;;;6.70;99.90;;;;;;5011697;28;20061;-82
2022/01/26 16:26:37;;;;;;;44.38;17.48;;;6.70;99.90;;;;;;5004920;28;20108;-82
2022/01/26 17:02:29;;;;;;;29.42;12.65;;;6.60;99.90;;;;;;5014180;28;20152;-81
2022/01/26 17:37:46;;;;;;;32.28;12.50;;;6.50;99.90;;;;;;5004400;28;20040;-81
2022/01/26 18:06:09;;;;;;;31.13;13.70;;;6.50;99.90;;;;;;5014008;28;20041;-80
2022/01/26 18:13:02;;;;;;;38.22;15.20;;;6.50;99.90;;;;;;5011895;28;20453;-80
2022/01/26 18:13:14;;;;;;;29.58;13.15;;;6.40;99.90;;;;;;5009352;28;20048;-81
2022/01/26 18:15:50;;;;;;;30.13;12.90;;;6.40;99.90;;;;;;5005474;28;20018;-80
2022/01/26 18:26:42;;;;;;;32.80;12.55;;;6.40;99.90;;;;;;5016367;28;20045;-83
2022/01/26 18:32:16;;;;;;;30.92;12.52;;;6.50;99.90;;;;;;5018107;28;20068;-83
2022/01/26 18:51:04;;;;;;;26.65;11.73;;;6.60;99.90;;;;;;5000506;28;19916;-81
2022/01/26 18:53:30;;;;;;;32.35;13.10;;;6.60;99.90;;;;;;5003429;28;20050;-81
2022/01/26 18:55:55;;;;;;;25.25;11.23;;;6.60;99.90;;;;;;5010356;28;20137;-81